Pine River, Wisconsin
Current Conditions -  °F | °C
As of 5:56 PM on Sunday 21 Dec 2014 (Local Time) from KY50 Reporting Station
Haze Haze  
Wind Chill: 28°   Ceiling: 800
Heat Index: 35°   Visibility: 4mi
Dew Point: 35°   Wind: 9mph
Humidity: 100%   Direction: 150°SSE
Pressure: 29.96"   Gusts: NA
Location:  44.15°N, 89.08°W
Report Text: KY50 212356Z AUTO 15008KT 4SM BR OVC008 02/02 A2996 RMK AO2 TSNO 55003 T00160016 10022 20016 CIG 006V010 SLP151
Loading
Personal Weather Stations






























Interactive Weather Map New forecast layout! Learn more

10-Day Weather Forecast

Advertisements
Track Severe Weather on mobile